Time;durP1;ratioP1;P1;durP2;ratioP2;P2;SDS_P1;SDS_P2;PMS_P1;PMS_P2;Temp;Humidity;BMP_temperature;BMP_pressure;BME280_temperature;BME280_humidity;BME280_pressure;Samples;Min_cycle;Max_cycle;Signal;HPM_P1;HPM_P2
2023/12/29 00:00:05;;;;;;;;;;;;;;;8.04;78.07;100500.41;4212249;28;20014;-71
2023/12/29 00:02:07;;;;;;;;;;;;;;;8.02;78.08;100505.13;4211442;28;20016;-71
2023/12/29 00:04:09;;;;;;;;;;;;;;;8.01;78.37;100507.00;4211776;28;20090;-72
2023/12/29 00:06:11;;;;;;;;;;;;;;;8.03;78.36;100509.53;4211846;28;20023;-71
2023/12/29 00:08:13;;;;;;;;;;;;;;;8.06;78.36;100507.31;4203037;28;20354;-71
2023/12/29 00:10:15;;;;;;;;;;;;;;;8.08;77.89;100504.47;4210837;28;20011;-71
2023/12/29 00:12:17;;;;;;;;;;;;;;;8.08;78.18;100499.09;4211493;28;20011;-71
2023/12/29 00:14:19;;;;;;;;;;;;;;;8.04;77.96;100508.50;4212250;28;20024;-71
2023/12/29 00:16:21;;;;;;;;;;;;;;;8.05;78.11;100502.94;4211779;28;20019;-71
2023/12/29 00:18:24;;;;;;;;;;;;;;;8.04;78.24;100495.91;4211923;28;20369;-71
2023/12/29 00:20:26;;;;;;;;;;;;;;;8.06;78.13;100488.50;4211756;28;20019;-71
2023/12/29 00:22:28;;;;;;;;;;;;;;;8.05;78.52;100491.34;4211912;28;20023;-70
2023/12/29 00:24:31;;;;;;;;;;;;;;;8.08;78.33;100486.47;4210771;28;20008;-71
2023/12/29 00:26:33;;;;;;;;;;;;;;;8.07;78.21;100487.50;4212590;28;20429;-71
2023/12/29 00:28:36;;;;;;;;;;;;;;;8.06;78.01;100471.53;4211602;28;20010;-71
2023/12/29 00:30:41;;;;;;;;;;;;;;;8.05;78.30;100473.34;4203268;28;20016;-71
2023/12/29 00:32:43;;;;;;;;;;;;;;;8.07;78.58;100479.44;4212403;28;20018;-71
2023/12/29 00:34:45;;;;;;;;;;;;;;;8.06;78.46;100476.91;4219694;28;19978;-71
2023/12/29 00:36:46;;;;;;;;;;;;;;;8.07;78.51;100475.88;4219277;28;19987;-71
2023/12/29 00:38:48;;;;;;;;;;;;;;;8.06;78.52;100480.44;4210746;28;19956;-71
2023/12/29 00:40:50;;;;;;;;;;;;;;;8.06;78.19;100485.81;4218065;28;20022;-71
2023/12/29 00:42:52;;;;;;;;;;;;;;;8.06;78.45;100471.53;4210320;28;20481;-71
2023/12/29 00:44:54;;;;;;;;;;;;;;;8.07;78.45;100467.81;4201195;28;20011;-71
2023/12/29 00:46:56;;;;;;;;;;;;;;;8.05;78.45;100462.59;4202485;28;20408;-71
2023/12/29 00:48:58;;;;;;;;;;;;;;;8.06;78.47;100468.84;4210480;28;20066;-71
2023/12/29 00:51:01;;;;;;;;;;;;;;;8.09;78.10;100453.19;4202491;28;20390;-71
2023/12/29 00:53:02;;;;;;;;;;;;;;;8.09;78.30;100463.13;4211902;28;20027;-71
2023/12/29 00:55:05;;;;;;;;;;;;;;;8.06;78.45;100448.16;4211328;28;20473;-71
2023/12/29 00:57:07;;;;;;;;;;;;;;;8.05;78.59;100454.53;4210583;28;20027;-71
2023/12/29 00:59:09;;;;;;;;;;;;;;;8.05;78.67;100459.91;4210402;28;20385;-71
2023/12/29 01:01:11;;;;;;;;;;;;;;;8.05;78.41;100459.91;4211045;28;20372;-71
2023/12/29 01:03:14;;;;;;;;;;;;;;;8.04;78.73;100450.19;4211269;28;20010;-71
2023/12/29 01:05:17;;;;;;;;;;;;;;;8.05;78.76;100461.78;4197749;28;20015;-71
2023/12/29 01:07:19;;;;;;;;;;;;;;;8.06;78.75;100461.59;4219206;28;20022;-70
2023/12/29 01:09:21;;;;;;;;;;;;;;;8.07;78.90;100454.38;4219208;28;20018;-71
2023/12/29 01:11:23;;;;;;;;;;;;;;;8.10;78.66;100456.72;4210981;28;20011;-71
2023/12/29 01:13:24;;;;;;;;;;;;;;;8.11;78.39;100448.47;4211650;28;20034;-71
2023/12/29 01:15:28;;;;;;;;;;;;;;;8.15;78.04;100456.22;4211405;28;19924;-71
2023/12/29 01:17:30;;;;;;;;;;;;;;;8.14;78.35;100447.31;4211224;28;20003;-71
2023/12/29 01:19:33;;;;;;;;;;;;;;;8.16;78.39;100449.84;4210205;28;20027;-71
2023/12/29 01:21:38;;;;;;;;;;;;;;;8.13;78.36;100445.63;4209862;28;20031;-71
2023/12/29 01:23:40;;;;;;;;;;;;;;;8.14;78.14;100441.94;4211683;28;20019;-71
2023/12/29 01:25:42;;;;;;;;;;;;;;;8.15;78.06;100434.69;4219166;28;20015;-71
2023/12/29 01:27:45;;;;;;;;;;;;;;;8.18;78.35;100434.34;4209948;28;20019;-71
2023/12/29 01:29:46;;;;;;;;;;;;;;;8.16;78.32;100447.97;4211791;28;20023;-71
2023/12/29 01:31:48;;;;;;;;;;;;;;;8.17;78.05;100422.78;4219040;28;20066;-71
2023/12/29 01:33:50;;;;;;;;;;;;;;;8.17;78.18;100430.84;4212021;28;20026;-71
2023/12/29 01:35:53;;;;;;;;;;;;;;;8.19;78.28;100428.81;4217754;28;19971;-71
2023/12/29 01:37:56;;;;;;;;;;;;;;;8.22;77.96;100433.84;4213918;28;20022;-71
2023/12/29 01:39:58;;;;;;;;;;;;;;;8.22;78.08;100428.47;4214449;28;20606;-71
2023/12/29 01:42:00;;;;;;;;;;;;;;;8.22;78.11;100412.31;4190258;28;20024;-71
2023/12/29 01:44:21;;;;;;;;;;;;;;;8.22;77.69;100414.19;4214773;28;20019;-71
2023/12/29 01:46:23;;;;;;;;;;;;;;;8.23;78.11;100419.41;4221477;27;20027;-71
2023/12/29 01:48:25;;;;;;;;;;;;;;;8.25;78.02;100422.75;4213831;28;20011;-71
2023/12/29 01:50:26;;;;;;;;;;;;;;;8.27;77.93;100406.44;4213197;28;20009;-71
2023/12/29 01:52:29;;;;;;;;;;;;;;;8.26;77.87;100405.63;4214839;28;20366;-72
2023/12/29 01:54:32;;;;;;;;;;;;;;;8.26;77.87;100404.75;4214957;28;20018;-71
2023/12/29 01:56:33;;;;;;;;;;;;;;;8.27;78.17;100401.88;4214365;28;19980;-71
2023/12/29 01:58:35;;;;;;;;;;;;;;;8.27;77.70;100401.06;4212950;28;19981;-71
2023/12/29 02:00:37;;;;;;;;;;;;;;;8.28;77.83;100386.59;4221125;28;20019;-71
2023/12/29 02:02:39;;;;;;;;;;;;;;;8.28;77.56;100387.44;4213859;28;20015;-71
2023/12/29 02:04:41;;;;;;;;;;;;;;;8.28;78.09;100378.53;4212796;28;20437;-71
2023/12/29 02:06:42;;;;;;;;;;;;;;;8.28;77.87;100384.75;4213380;28;20338;-71
2023/12/29 02:08:45;;;;;;;;;;;;;;;8.30;77.83;100387.25;4213623;28;19954;-71
2023/12/29 02:10:47;;;;;;;;;;;;;;;8.28;77.76;100373.16;4211604;28;20022;-71
2023/12/29 02:12:50;;;;;;;;;;;;;;;8.29;77.99;100386.44;4213467;28;20498;-71
2023/12/29 02:14:52;;;;;;;;;;;;;;;8.32;77.91;100385.22;4213678;28;20048;-71
2023/12/29 02:16:54;;;;;;;;;;;;;;;8.33;77.84;100391.47;4213955;28;19925;-71
2023/12/29 02:18:56;;;;;;;;;;;;;;;8.34;77.96;100390.44;4214089;28;20023;-71
2023/12/29 02:20:59;;;;;;;;;;;;;;;8.35;77.71;100367.91;4212356;28;20023;-71
2023/12/29 02:23:01;;;;;;;;;;;;;;;8.34;77.66;100380.53;4213731;28;20023;-71
2023/12/29 02:25:04;;;;;;;;;;;;;;;8.34;77.77;100395.81;4204472;28;20361;-71
2023/12/29 02:27:08;;;;;;;;;;;;;;;8.33;77.71;100365.41;4212667;28;20030;-72
2023/12/29 02:29:10;;;;;;;;;;;;;;;8.32;78.11;100370.94;4212917;28;20028;-71
2023/12/29 02:31:14;;;;;;;;;;;;;;;8.34;77.84;100352.78;4212564;28;20010;-71
2023/12/29 02:33:18;;;;;;;;;;;;;;;8.33;78.17;100356.50;4213756;28;20015;-72
2023/12/29 02:35:22;;;;;;;;;;;;;;;8.34;77.92;100366.22;4213902;28;20019;-71
2023/12/29 02:37:24;;;;;;;;;;;;;;;8.34;78.14;100350.09;4203006;28;19930;-71
2023/12/29 02:39:26;;;;;;;;;;;;;;;8.33;78.09;100354.63;4213057;28;20048;-71
2023/12/29 02:41:29;;;;;;;;;;;;;;;8.34;77.87;100345.56;4203628;28;20012;-71
2023/12/29 02:43:31;;;;;;;;;;;;;;;8.35;77.78;100343.69;4213683;28;20023;-71
2023/12/29 02:45:33;;;;;;;;;;;;;;;8.36;77.70;100351.59;4212323;28;20349;-71
2023/12/29 02:47:35;;;;;;;;;;;;;;;8.35;77.86;100343.69;4213332;28;20024;-71
2023/12/29 02:49:36;;;;;;;;;;;;;;;8.36;77.79;100331.94;4219942;28;20023;-71
2023/12/29 02:51:39;;;;;;;;;;;;;;;8.36;77.79;100337.31;4212940;28;20014;-71
2023/12/29 02:53:40;;;;;;;;;;;;;;;8.35;77.60;100331.06;4213144;28;20027;-70
2023/12/29 02:55:42;;;;;;;;;;;;;;;8.34;77.56;100329.41;4214452;28;20046;-71
2023/12/29 02:57:45;;;;;;;;;;;;;;;8.34;77.85;100345.56;4204006;28;19953;-71
2023/12/29 02:59:47;;;;;;;;;;;;;;;8.36;77.57;100330.06;4201818;28;20034;-71
2023/12/29 03:01:49;;;;;;;;;;;;;;;8.35;77.66;100323.00;4210624;28;20493;-71
2023/12/29 03:03:51;;;;;;;;;;;;;;;8.36;77.24;100318.47;4213221;28;19978;-71
2023/12/29 03:05:53;;;;;;;;;;;;;;;8.34;77.29;100315.97;4211402;28;20042;-71
2023/12/29 03:07:55;;;;;;;;;;;;;;;8.34;77.67;100325.88;4213068;28;20015;-71
2023/12/29 03:09:57;;;;;;;;;;;;;;;8.36;77.42;100315.78;4213193;28;20018;-71
2023/12/29 03:11:58;;;;;;;;;;;;;;;8.36;77.22;100308.56;4212029;28;20011;-71
2023/12/29 03:14:01;;;;;;;;;;;;;;;8.33;77.28;100305.38;4212799;28;19932;-71
2023/12/29 03:16:03;;;;;;;;;;;;;;;8.33;77.41;100318.81;4211546;28;20007;-71
2023/12/29 03:18:06;;;;;;;;;;;;;;;8.32;77.39;100309.91;4220592;28;20018;-71
2023/12/29 03:20:08;;;;;;;;;;;;;;;8.29;77.45;100319.16;4203864;28;20379;-71
2023/12/29 03:22:10;;;;;;;;;;;;;;;8.30;77.86;100306.53;4203587;28;20006;-71
2023/12/29 03:24:12;;;;;;;;;;;;;;;8.30;77.53;100309.25;4220641;28;20485;-72
2023/12/29 03:26:13;;;;;;;;;;;;;;;8.29;77.79;100319.16;4220447;28;20015;-71
2023/12/29 03:28:15;;;;;;;;;;;;;;;8.29;77.60;100319.16;4213496;28;20031;-71
2023/12/29 03:30:20;;;;;;;;;;;;;;;8.28;77.64;100305.88;4212641;28;20019;-71
2023/12/29 03:32:21;;;;;;;;;;;;;;;8.29;77.86;100304.84;4211950;28;20509;-71
2023/12/29 03:34:23;;;;;;;;;;;;;;;8.27;77.81;100305.03;4213415;28;19924;-71
2023/12/29 03:36:24;;;;;;;;;;;;;;;8.27;77.61;100302.34;4212786;28;20007;-71
2023/12/29 03:38:26;;;;;;;;;;;;;;;8.26;77.49;100305.19;4213455;28;19925;-71
2023/12/29 03:40:27;;;;;;;;;;;;;;;8.26;77.80;100302.50;4202582;28;20023;-71
2023/12/29 03:42:29;;;;;;;;;;;;;;;8.25;77.72;100300.84;4212413;28;19924;-71
2023/12/29 03:44:31;;;;;;;;;;;;;;;8.26;77.60;100289.06;4211985;28;20031;-71
2023/12/29 03:46:34;;;;;;;;;;;;;;;8.21;77.96;100289.59;4213251;28;20444;-71
2023/12/29 03:48:36;;;;;;;;;;;;;;;8.20;77.76;100282.53;4212351;28;20015;-71
2023/12/29 03:50:38;;;;;;;;;;;;;;;8.19;78.03;100285.41;4212706;28;20026;-71
2023/12/29 03:53:05;;;;;;;;;;;;;;;8.19;78.29;100297.00;4211896;28;20055;-71
2023/12/29 03:55:08;;;;;;;;;;;;;;;8.18;78.15;100292.63;4210980;28;20016;-71
2023/12/29 03:57:10;;;;;;;;;;;;;;;8.18;77.70;100289.94;4210097;28;20022;-71
2023/12/29 03:59:12;;;;;;;;;;;;;;;8.20;77.63;100284.41;4211281;28;20016;-71
2023/12/29 04:01:16;;;;;;;;;;;;;;;8.20;77.76;100296.00;4208331;28;20366;-71
2023/12/29 04:03:19;;;;;;;;;;;;;;;8.20;77.56;100277.16;4220522;28;20380;-72
2023/12/29 04:05:21;;;;;;;;;;;;;;;8.16;77.87;100281.19;4219618;27;20031;-71
2023/12/29 04:07:23;;;;;;;;;;;;;;;8.17;77.94;100274.81;4219708;28;20580;-71
2023/12/29 04:09:25;;;;;;;;;;;;;;;8.17;77.95;100276.69;4218807;28;20014;-71
2023/12/29 04:11:27;;;;;;;;;;;;;;;8.14;77.76;100259.03;4210729;28;20035;-71
2023/12/29 04:13:31;;;;;;;;;;;;;;;8.16;78.01;100270.44;4202514;28;20454;-71
2023/12/29 04:15:33;;;;;;;;;;;;;;;8.17;77.96;100263.22;4203197;28;20018;-71
2023/12/29 04:17:34;;;;;;;;;;;;;;;8.18;77.63;100270.25;4202371;28;20043;-71
2023/12/29 04:19:37;;;;;;;;;;;;;;;8.17;77.73;100257.84;4212554;28;20389;-71
2023/12/29 04:21:39;;;;;;;;;;;;;;;8.17;77.83;100249.78;4211030;28;20437;-71
2023/12/29 04:23:42;;;;;;;;;;;;;;;8.17;77.69;100257.84;4211106;28;20448;-71
2023/12/29 04:25:44;;;;;;;;;;;;;;;8.16;77.52;100248.09;4202628;28;20011;-71
2023/12/29 04:27:46;;;;;;;;;;;;;;;8.15;78.02;100249.94;4212433;28;20019;-72
2023/12/29 04:29:48;;;;;;;;;;;;;;;8.15;77.83;100246.41;4211574;28;20138;-72
2023/12/29 04:31:51;;;;;;;;;;;;;;;8.13;78.17;100238.50;4211741;28;20411;-71
2023/12/29 04:33:53;;;;;;;;;;;;;;;8.14;78.02;100248.25;4211858;28;20015;-72
2023/12/29 04:35:55;;;;;;;;;;;;;;;8.16;78.30;100265.06;4208630;28;20039;-72
2023/12/29 04:37:57;;;;;;;;;;;;;;;8.19;78.04;100243.19;4210648;28;20868;-71
2023/12/29 04:39:59;;;;;;;;;;;;;;;8.22;77.96;100252.78;4201919;28;20002;-71
2023/12/29 04:42:01;;;;;;;;;;;;;;;8.22;77.59;100228.56;4209154;28;20032;-71
2023/12/29 04:44:03;;;;;;;;;;;;;;;8.23;77.73;100249.91;4210977;28;20019;-71
2023/12/29 04:46:05;;;;;;;;;;;;;;;8.22;77.64;100242.84;4211416;28;20022;-71
2023/12/29 04:48:07;;;;;;;;;;;;;;;8.22;77.86;100240.16;4211910;28;20023;-72
2023/12/29 04:50:09;;;;;;;;;;;;;;;8.21;78.01;100251.94;4211888;28;19975;-71
2023/12/29 04:52:12;;;;;;;;;;;;;;;8.24;78.18;100245.34;4210946;28;20011;-71
2023/12/29 04:54:14;;;;;;;;;;;;;;;8.24;77.86;100240.81;4212158;28;20019;-72
2023/12/29 04:56:16;;;;;;;;;;;;;;;8.25;77.80;100229.03;4209036;28;20031;-71
2023/12/29 04:58:18;;;;;;;;;;;;;;;8.26;78.01;100219.97;4209814;28;20015;-71
2023/12/29 05:00:21;;;;;;;;;;;;;;;8.28;78.09;100217.94;4210160;28;20396;-71
2023/12/29 05:02:22;;;;;;;;;;;;;;;8.28;78.15;100214.41;4210825;28;20015;-71
2023/12/29 05:04:24;;;;;;;;;;;;;;;8.29;78.00;100219.63;4212240;28;19964;-71
2023/12/29 05:06:24;;;;;;;;;;;;;;;8.30;77.78;100205.13;4210791;28;20002;-71
2023/12/29 05:08:28;;;;;;;;;;;;;;;8.30;78.09;100209.69;4209901;28;19924;-71
2023/12/29 05:10:30;;;;;;;;;;;;;;;8.31;78.08;100219.44;4211073;28;20485;-71
2023/12/29 05:12:32;;;;;;;;;;;;;;;8.31;77.93;100219.44;4209901;28;20018;-71
2023/12/29 05:14:33;;;;;;;;;;;;;;;8.33;78.15;100212.03;4211775;28;20106;-72
2023/12/29 05:16:35;;;;;;;;;;;;;;;8.33;78.25;100241.63;4210769;28;20393;-71
2023/12/29 05:18:36;;;;;;;;;;;;;;;8.34;78.17;100208.34;4210921;28;20019;-71
2023/12/29 05:20:38;;;;;;;;;;;;;;;8.35;78.33;100201.09;4210989;28;19931;-71
2023/12/29 05:22:40;;;;;;;;;;;;;;;8.37;77.95;100209.81;4211627;28;20789;-71
2023/12/29 05:24:43;;;;;;;;;;;;;;;8.36;77.95;100200.09;4210778;28;19974;-71
2023/12/29 05:26:45;;;;;;;;;;;;;;;8.37;77.96;100223.28;4212308;28;19999;-71
2023/12/29 05:28:47;;;;;;;;;;;;;;;8.38;77.91;100208.81;4211770;28;20003;-71
2023/12/29 05:30:49;;;;;;;;;;;;;;;8.39;77.93;100207.81;4212027;28;20039;-71
2023/12/29 05:32:51;;;;;;;;;;;;;;;8.41;77.77;100203.09;4211314;28;20056;-71
2023/12/29 05:34:53;;;;;;;;;;;;;;;8.40;77.98;100217.53;4211356;28;20023;-71
2023/12/29 05:36:55;;;;;;;;;;;;;;;8.40;77.82;100210.31;4211215;28;20070;-71
2023/12/29 05:38:59;;;;;;;;;;;;;;;8.40;78.13;100199.56;4211356;28;20022;-71
2023/12/29 05:41:04;;;;;;;;;;;;;;;8.41;77.82;100200.38;4210451;28;19942;-71
2023/12/29 05:43:06;;;;;;;;;;;;;;;8.41;77.67;100209.28;4210730;28;20631;-71
2023/12/29 05:45:08;;;;;;;;;;;;;;;8.41;77.72;100206.59;4211042;28;20086;-71
2023/12/29 05:47:10;;;;;;;;;;;;;;;8.42;77.98;100226.28;4210713;28;20496;-71
2023/12/29 05:49:12;;;;;;;;;;;;;;;8.42;77.60;100210.97;4202382;28;20019;-72
2023/12/29 05:51:15;;;;;;;;;;;;;;;8.44;77.64;100202.75;4211027;28;20068;-71
2023/12/29 05:53:17;;;;;;;;;;;;;;;8.44;77.74;100210.84;4211831;28;20022;-71
2023/12/29 05:55:19;;;;;;;;;;;;;;;8.44;77.80;100218.91;4210526;28;20019;-71
2023/12/29 05:57:23;;;;;;;;;;;;;;;8.44;77.82;100192.81;4210639;28;20019;-71
2023/12/29 05:59:25;;;;;;;;;;;;;;;8.44;77.89;100222.44;4210867;28;20016;-71
2023/12/29 06:01:27;;;;;;;;;;;;;;;8.46;77.77;100219.56;4211260;28;19924;-71
2023/12/29 06:03:28;;;;;;;;;;;;;;;8.47;77.61;100223.94;4209883;28;20023;-71
2023/12/29 06:05:30;;;;;;;;;;;;;;;8.47;77.51;100200.53;4211192;28;20019;-71
2023/12/29 06:07:32;;;;;;;;;;;;;;;8.49;77.41;100200.38;4211953;28;20022;-71
2023/12/29 06:09:34;;;;;;;;;;;;;;;8.49;77.43;100197.69;4210203;28;20015;-71
2023/12/29 06:11:36;;;;;;;;;;;;;;;8.49;77.03;100205.75;4209447;28;20024;-71
2023/12/29 06:13:39;;;;;;;;;;;;;;;8.50;77.26;100195.84;4210473;28;20027;-71
2023/12/29 06:15:41;;;;;;;;;;;;;;;8.51;77.49;100197.50;4217843;28;20457;-71
2023/12/29 06:17:43;;;;;;;;;;;;;;;8.50;77.37;100201.22;4211059;28;20059;-71
2023/12/29 06:19:44;;;;;;;;;;;;;;;8.51;77.18;100197.50;4210719;28;20019;-71
2023/12/29 06:21:47;;;;;;;;;;;;;;;8.51;77.28;100194.81;4210365;28;19932;-71
2023/12/29 06:23:49;;;;;;;;;;;;;;;8.52;76.92;100189.25;4210233;28;20018;-71
2023/12/29 06:25:51;;;;;;;;;;;;;;;8.52;76.96;100165.03;4213528;28;20011;-71
2023/12/29 06:27:53;;;;;;;;;;;;;;;8.53;76.95;100188.25;4214565;28;20363;-71
2023/12/29 06:29:56;;;;;;;;;;;;;;;8.54;76.63;100175.63;4213885;28;20010;-71
2023/12/29 06:31:58;;;;;;;;;;;;;;;8.53;76.97;100157.81;4214002;28;20019;-71
2023/12/29 06:34:01;;;;;;;;;;;;;;;8.55;76.51;100161.16;4213697;28;20039;-71
2023/12/29 06:36:03;;;;;;;;;;;;;;;8.55;76.75;100178.13;4213381;28;20026;-71
2023/12/29 06:38:05;;;;;;;;;;;;;;;8.56;76.57;100195.97;4213375;28;20036;-72
2023/12/29 06:40:08;;;;;;;;;;;;;;;8.56;76.62;100190.59;4212809;28;20461;-71
2023/12/29 06:42:10;;;;;;;;;;;;;;;8.56;76.36;100212.13;4213667;28;20372;-71
2023/12/29 06:44:12;;;;;;;;;;;;;;;8.57;76.72;100208.38;4212770;28;20354;-71
2023/12/29 06:46:15;;;;;;;;;;;;;;;8.59;76.64;100221.66;4213420;28;20019;-71
2023/12/29 06:48:17;;;;;;;;;;;;;;;8.59;76.54;100206.38;4213991;28;20018;-71
2023/12/29 06:50:20;;;;;;;;;;;;;;;8.60;76.52;100218.81;4210839;28;20351;-71
2023/12/29 06:52:21;;;;;;;;;;;;;;;8.60;76.61;100234.13;4211700;28;20019;-71
2023/12/29 06:54:23;;;;;;;;;;;;;;;8.60;76.58;100226.88;4212382;28;20047;-71
2023/12/29 06:56:26;;;;;;;;;;;;;;;8.61;76.73;100231.25;4213802;28;20031;-71
2023/12/29 06:58:28;;;;;;;;;;;;;;;8.62;76.67;100216.78;4212647;28;20011;-71
2023/12/29 07:00:30;;;;;;;;;;;;;;;8.61;76.68;100208.91;4213040;28;20441;-71
2023/12/29 07:02:33;;;;;;;;;;;;;;;8.63;76.69;100223.00;4211953;28;20022;-71
2023/12/29 07:04:35;;;;;;;;;;;;;;;8.63;76.75;100221.13;4213788;28;20016;-71
2023/12/29 07:06:40;;;;;;;;;;;;;;;8.64;76.43;100203.16;4213042;28;20050;-71
2023/12/29 07:08:42;;;;;;;;;;;;;;;8.64;76.44;100251.63;4213523;28;20019;-72
2023/12/29 07:10:44;;;;;;;;;;;;;;;8.65;76.50;100231.72;4212023;28;20020;-71
2023/12/29 07:12:47;;;;;;;;;;;;;;;8.65;76.26;100224.53;4211931;28;19952;-72
2023/12/29 07:14:49;;;;;;;;;;;;;;;8.65;76.60;100229.91;4213529;28;19999;-72
2023/12/29 07:16:50;;;;;;;;;;;;;;;8.66;76.32;100233.41;4213830;28;20027;-71
2023/12/29 07:18:53;;;;;;;;;;;;;;;8.68;76.28;100225.16;4213212;28;20015;-71
2023/12/29 07:20:56;;;;;;;;;;;;;;;8.68;76.57;100226.00;4212162;28;20003;-71
2023/12/29 07:22:58;;;;;;;;;;;;;;;8.68;76.40;100225.16;4211995;28;19924;-71
2023/12/29 07:25:00;;;;;;;;;;;;;;;8.68;76.48;100209.84;4213914;28;20019;-71
2023/12/29 07:27:02;;;;;;;;;;;;;;;8.69;76.57;100232.25;4212893;28;20039;-71
2023/12/29 07:29:05;;;;;;;;;;;;;;;8.71;76.51;100251.75;4212263;28;20020;-71
2023/12/29 07:31:07;;;;;;;;;;;;;;;8.71;76.36;100222.94;4213017;28;20019;-72
2023/12/29 07:33:08;;;;;;;;;;;;;;;8.72;76.68;100218.44;4212933;28;20027;-71
2023/12/29 07:35:15;;;;;;;;;;;;;;;8.72;76.60;100221.13;4211329;28;19988;-72
2023/12/29 07:37:16;;;;;;;;;;;;;;;8.72;76.53;100221.13;4212868;28;20029;-71
2023/12/29 07:39:18;;;;;;;;;;;;;;;8.73;76.40;100241.63;4210864;28;20398;-71
2023/12/29 07:41:20;;;;;;;;;;;;;;;8.73;76.24;100223.63;4212475;28;20015;-71
2023/12/29 07:43:23;;;;;;;;;;;;;;;8.74;76.51;100233.38;4211580;28;19924;-71
2023/12/29 07:45:25;;;;;;;;;;;;;;;8.74;76.22;100225.28;4220228;28;19928;-71
2023/12/29 07:47:27;;;;;;;;;;;;;;;8.75;76.24;100231.53;4212862;28;20015;-71
2023/12/29 07:49:29;;;;;;;;;;;;;;;8.75;76.42;100223.47;4211382;28;20031;-71
2023/12/29 07:51:32;;;;;;;;;;;;;;;8.75;76.24;100213.50;4207147;28;20460;-72
2023/12/29 07:53:34;;;;;;;;;;;;;;;8.75;76.43;100253.91;4209959;28;20035;-72
2023/12/29 07:55:37;;;;;;;;;;;;;;;8.75;76.38;100224.28;4211083;28;20437;-72
2023/12/29 07:57:39;;;;;;;;;;;;;;;8.76;76.53;100227.81;4211542;28;20474;-72
2023/12/29 07:59:41;;;;;;;;;;;;;;;8.77;76.56;100224.09;4207525;28;20015;-71
2023/12/29 08:01:43;;;;;;;;;;;;;;;8.77;76.41;100233.00;4209012;28;20034;-72
2023/12/29 08:03:45;;;;;;;;;;;;;;;8.78;76.41;100220.41;4210122;28;20449;-71
2023/12/29 08:05:46;;;;;;;;;;;;;;;8.77;76.46;100240.25;4210413;28;20020;-72
2023/12/29 08:07:50;;;;;;;;;;;;;;;8.79;76.16;100249.00;4209989;28;19924;-71
2023/12/29 08:09:52;;;;;;;;;;;;;;;8.78;76.05;100223.09;4208392;28;20019;-71
2023/12/29 08:11:54;;;;;;;;;;;;;;;8.77;76.38;100238.41;4207153;28;20011;-71
2023/12/29 08:13:56;;;;;;;;;;;;;;;8.79;76.36;100243.59;4209590;28;20368;-71
2023/12/29 08:15:58;;;;;;;;;;;;;;;8.79;76.25;100249.00;4208746;28;20023;-71
2023/12/29 08:18:00;;;;;;;;;;;;;;;8.77;76.38;100242.97;4207435;28;20058;-71
2023/12/29 08:20:01;;;;;;;;;;;;;;;8.79;76.58;100263.31;4208256;28;20035;-72
2023/12/29 08:22:03;;;;;;;;;;;;;;;8.80;76.31;100254.19;4208963;28;19928;-72
2023/12/29 08:24:06;;;;;;;;;;;;;;;8.80;76.37;100251.50;4208861;28;20481;-72
2023/12/29 08:26:08;;;;;;;;;;;;;;;8.80;76.71;100251.50;4209144;28;20003;-72
2023/12/29 08:28:10;;;;;;;;;;;;;;;8.82;76.46;100281.81;4208136;28;20019;-72
2023/12/29 08:30:13;;;;;;;;;;;;;;;8.83;76.32;100243.06;4208368;28;20019;-72
2023/12/29 08:32:15;;;;;;;;;;;;;;;8.84;76.56;100252.00;4207169;28;20591;-72
2023/12/29 08:34:18;;;;;;;;;;;;;;;8.84;76.59;100230.47;4208961;28;20019;-73
2023/12/29 08:36:20;;;;;;;;;;;;;;;8.84;76.35;100260.91;4209988;28;20019;-72
2023/12/29 08:38:22;;;;;;;;;;;;;;;8.86;76.32;100244.59;4209309;28;20039;-72
2023/12/29 08:40:25;;;;;;;;;;;;;;;8.86;76.75;100241.88;4208417;28;20402;-72
2023/12/29 08:42:28;;;;;;;;;;;;;;;8.88;76.76;100249.78;4206656;28;20010;-72
2023/12/29 08:44:30;;;;;;;;;;;;;;;8.89;76.60;100262.25;4208146;28;20366;-72
2023/12/29 08:46:31;;;;;;;;;;;;;;;8.88;76.69;100255.19;4207034;28;20038;-71
2023/12/29 08:48:34;;;;;;;;;;;;;;;8.90;76.66;100256.66;4206548;28;19932;-73
2023/12/29 08:50:36;;;;;;;;;;;;;;;8.92;76.72;100253.78;4206825;28;19989;-72
2023/12/29 08:52:39;;;;;;;;;;;;;;;8.92;76.69;100254.66;4205758;28;20652;-72
2023/12/29 08:54:43;;;;;;;;;;;;;;;8.95;76.75;100253.44;4205457;28;19972;-73
2023/12/29 08:56:47;;;;;;;;;;;;;;;8.96;76.65;100257.81;4181767;28;19932;-73
2023/12/29 08:58:50;;;;;;;;;;;;;;;8.98;76.47;100255.78;4198430;28;19928;-73
2023/12/29 09:00:52;;;;;;;;;;;;;;;8.97;76.62;100263.03;4207511;28;20040;-72
2023/12/29 09:02:54;;;;;;;;;;;;;;;8.98;76.46;100243.16;4207305;28;20023;-72
2023/12/29 09:04:56;;;;;;;;;;;;;;;9.00;76.53;100275.31;4208182;28;20019;-71
2023/12/29 09:06:57;;;;;;;;;;;;;;;9.01;76.57;100266.19;4207912;28;20034;-72
2023/12/29 09:08:59;;;;;;;;;;;;;;;9.01;76.55;100256.28;4208101;28;20019;-72
2023/12/29 09:11:01;;;;;;;;;;;;;;;9.02;76.34;100260.63;4209732;28;20441;-72
2023/12/29 09:13:05;;;;;;;;;;;;;;;9.03;76.38;100256.09;4209988;28;20433;-72
2023/12/29 09:15:08;;;;;;;;;;;;;;;9.04;76.43;100265.00;4209655;28;20058;-73
2023/12/29 09:17:10;;;;;;;;;;;;;;;9.05;76.35;100269.38;4209377;28;20022;-73
2023/12/29 09:19:12;;;;;;;;;;;;;;;9.06;76.32;100273.75;4210543;28;20442;-73
2023/12/29 09:21:14;;;;;;;;;;;;;;;9.06;76.05;100253.03;4208435;28;20019;-73
2023/12/29 09:23:16;;;;;;;;;;;;;;;9.07;76.24;100240.41;4210243;28;20019;-72
2023/12/29 09:25:18;;;;;;;;;;;;;;;9.08;76.07;100266.34;4210778;28;19950;-71
2023/12/29 09:27:20;;;;;;;;;;;;;;;9.08;75.98;100267.16;4209894;28;20192;-72
2023/12/29 09:29:26;;;;;;;;;;;;;;;9.09;76.24;100246.44;4210337;28;20466;-71
2023/12/29 09:31:28;;;;;;;;;;;;;;;9.10;76.05;100273.19;4210580;28;20023;-71
2023/12/29 09:33:29;;;;;;;;;;;;;;;9.11;76.27;100266.81;4210691;28;20022;-70
2023/12/29 09:35:31;;;;;;;;;;;;;;;9.12;75.90;100254.16;4211249;28;20019;-70
2023/12/29 09:37:34;;;;;;;;;;;;;;;9.12;76.24;100244.25;4210680;28;19928;-69
2023/12/29 09:39:36;;;;;;;;;;;;;;;9.13;76.33;100245.06;4202814;28;20607;-69
2023/12/29 09:41:39;;;;;;;;;;;;;;;9.13;76.27;100258.53;4205431;28;19924;-69
2023/12/29 09:43:40;;;;;;;;;;;;;;;9.15;76.14;100251.13;4208769;28;20023;-70
2023/12/29 09:45:43;;;;;;;;;;;;;;;9.16;76.52;100244.72;4209564;28;19978;-70
2023/12/29 09:47:45;;;;;;;;;;;;;;;9.17;76.36;100252.63;4208609;28;20019;-70
2023/12/29 09:49:47;;;;;;;;;;;;;;;9.19;76.36;100238.97;4209092;28;20023;-70
2023/12/29 09:51:49;;;;;;;;;;;;;;;9.20;76.45;100246.88;4204506;28;20031;-69
2023/12/29 09:53:54;;;;;;;;;;;;;;;9.24;76.69;100254.59;4208402;28;20374;-70
2023/12/29 09:55:56;;;;;;;;;;;;;;;9.24;76.43;100247.34;4207757;28;19946;-69
2023/12/29 09:57:58;;;;;;;;;;;;;;;9.26;76.47;100239.91;4202825;28;20043;-68
2023/12/29 10:00:02;;;;;;;;;;;;;;;9.28;76.59;100235.19;4189475;28;19986;-69
2023/12/29 10:02:15;;;;;;;;;;;;;;;9.31;76.43;100267.16;4210926;28;20035;-68
2023/12/29 10:04:17;;;;;;;;;;;;;;;9.33;76.42;100238.19;4209703;28;20022;-69
2023/12/29 10:06:20;;;;;;;;;;;;;;;9.35;76.21;100243.38;4208797;28;19928;-69
2023/12/29 10:08:22;;;;;;;;;;;;;;;9.37;76.40;100260.19;4220319;28;20014;-69
2023/12/29 10:10:24;;;;;;;;;;;;;;;9.41;76.44;100255.31;4211436;28;20007;-69
2023/12/29 10:12:26;;;;;;;;;;;;;;;9.41;76.29;100256.13;4204065;28;20337;-69
2023/12/29 10:14:30;;;;;;;;;;;;;;;9.43;76.01;100259.47;4211432;28;20006;-69
2023/12/29 10:16:34;;;;;;;;;;;;;;;9.45;76.05;100235.03;4218881;28;19932;-68
2023/12/29 10:18:39;;;;;;;;;;;;;;;9.47;76.11;100241.09;4220984;28;20039;-69
2023/12/29 10:20:46;;;;;;;;;;;;;;;9.49;75.83;100228.28;4211734;28;19924;-69
2023/12/29 10:22:48;;;;;;;;;;;;;;;9.49;75.76;100234.50;4204551;28;20350;-69
2023/12/29 10:24:50;;;;;;;;;;;;;;;9.51;75.94;100237.88;4207150;28;20015;-69
2023/12/29 10:26:53;;;;;;;;;;;;;;;9.52;75.78;100228.75;4212267;28;20031;-69
2023/12/29 10:28:55;;;;;;;;;;;;;;;9.54;76.05;100237.50;4208466;28;20371;-69
2023/12/29 10:30:56;;;;;;;;;;;;;;;9.56;75.79;100239.97;4209566;28;20153;-69
2023/12/29 10:33:00;;;;;;;;;;;;;;;9.57;75.77;100225.50;4204716;28;19968;-69
2023/12/29 10:35:10;;;;;;;;;;;;;;;9.58;76.00;100219.09;4209205;28;20010;-69
2023/12/29 10:37:17;;;;;;;;;;;;;;;9.61;75.84;100216.03;4204382;28;20024;-69